createdAt,value
2023-05-19T00:02:16.372Z,6.55
2023-05-19T00:04:45.252Z,5.85
2023-05-19T00:07:18.339Z,6.35
2023-05-19T00:09:47.172Z,5.82
2023-05-19T00:12:16.530Z,5.57
2023-05-19T00:14:44.979Z,5.65
2023-05-19T00:17:13.565Z,7.00
2023-05-19T00:19:42.131Z,7.30
2023-05-19T00:22:10.300Z,6.00
2023-05-19T00:24:38.602Z,7.53
2023-05-19T00:27:07.075Z,6.32
2023-05-19T00:29:35.283Z,6.22
2023-05-19T00:32:03.693Z,6.75
2023-05-19T00:34:32.080Z,8.88
2023-05-19T00:37:00.320Z,6.60
2023-05-19T00:39:28.523Z,6.85
2023-05-19T00:41:56.946Z,5.30
2023-05-19T00:44:25.346Z,6.50
2023-05-19T00:46:54.172Z,6.78
2023-05-19T00:49:22.424Z,6.60
2023-05-19T00:51:51.532Z,5.70
2023-05-19T00:54:21.477Z,5.68
2023-05-19T00:56:50.230Z,6.40
2023-05-19T00:59:19.154Z,5.75
2023-05-19T01:01:49.552Z,5.72
2023-05-19T01:04:20.760Z,6.13
2023-05-19T01:06:55.390Z,6.75
2023-05-19T01:09:24.281Z,5.28
2023-05-19T01:11:52.709Z,5.43
2023-05-19T01:14:21.912Z,5.93
2023-05-19T01:16:59.390Z,7.85
2023-05-19T01:19:51.201Z,7.32
2023-05-19T01:22:43.230Z,7.65
2023-05-19T01:25:20.723Z,5.57
2023-05-19T01:28:07.642Z,6.03
2023-05-19T01:30:43.798Z,6.95
2023-05-19T01:33:17.276Z,6.38
2023-05-19T01:35:46.873Z,5.00
2023-05-19T01:38:17.883Z,6.68
2023-05-19T01:40:48.234Z,6.93
2023-05-19T01:43:21.686Z,6.40
2023-05-19T01:45:51.338Z,6.05
2023-05-19T01:48:20.028Z,5.85
2023-05-19T01:50:48.264Z,8.32
2023-05-19T01:53:17.260Z,6.70
2023-05-19T01:55:48.422Z,5.88
2023-05-19T01:58:47.828Z,6.60
2023-05-19T02:01:56.957Z,5.15
2023-05-19T02:04:45.553Z,6.55
2023-05-19T02:07:21.606Z,5.82
2023-05-19T02:10:05.423Z,6.07
2023-05-19T02:12:38.061Z,6.00
2023-05-19T02:15:08.255Z,6.90
2023-05-19T02:17:43.388Z,6.70
2023-05-19T02:20:12.226Z,6.40
2023-05-19T02:22:41.308Z,7.80
2023-05-19T02:25:10.123Z,5.47
2023-05-19T02:27:39.347Z,6.47
2023-05-19T02:30:10.170Z,6.05
2023-05-19T02:32:38.670Z,6.15
2023-05-19T02:35:07.162Z,6.25
2023-05-19T02:37:35.789Z,6.22
2023-05-19T02:40:04.779Z,6.00
2023-05-19T02:42:33.460Z,5.82
2023-05-19T02:45:01.867Z,5.60
2023-05-19T02:47:30.531Z,6.38
2023-05-19T02:49:58.780Z,6.38
2023-05-19T02:52:27.416Z,6.07
2023-05-19T02:54:55.658Z,5.82
2023-05-19T02:57:24.944Z,8.23
2023-05-19T02:59:53.416Z,7.95
2023-05-19T03:02:22.424Z,6.28
2023-05-19T03:04:51.749Z,6.40
2023-05-19T03:07:25.681Z,6.10
2023-05-19T03:09:54.496Z,6.78
2023-05-19T03:12:23.016Z,5.53
2023-05-19T03:14:51.379Z,6.72
2023-05-19T03:17:20.068Z,7.10
2023-05-19T03:19:49.018Z,8.07
2023-05-19T03:22:18.941Z,6.43
2023-05-19T03:24:47.699Z,6.15
2023-05-19T03:27:16.915Z,5.93
2023-05-19T03:29:45.426Z,7.70
2023-05-19T03:32:13.880Z,6.68
2023-05-19T03:34:42.819Z,5.72
2023-05-19T03:37:11.270Z,6.82
2023-05-19T03:39:41.181Z,6.13
2023-05-19T03:42:09.413Z,7.50
2023-05-19T03:44:37.586Z,5.90
2023-05-19T03:47:06.481Z,5.68
2023-05-19T03:50:02.721Z,8.50
2023-05-19T19:32:39.415Z,4.37
2023-05-19T19:35:08.539Z,7.05
2023-05-19T19:37:36.990Z,3.97
2023-05-19T19:40:05.719Z,3.50
2023-05-19T19:42:34.139Z,3.85
2023-05-19T19:45:02.991Z,5.00
2023-05-19T19:47:31.624Z,3.50
2023-05-19T19:50:01.588Z,4.57
2023-05-19T19:52:30.468Z,3.35
2023-05-19T19:55:01.696Z,5.45
2023-05-19T19:57:31.942Z,3.58
2023-05-19T20:00:08.656Z,6.97
2023-05-19T20:05:24.036Z,2.90
2023-05-19T20:07:52.465Z,4.00
2023-05-19T20:10:20.789Z,7.82
2023-05-19T20:12:51.341Z,4.00
2023-05-19T20:15:19.971Z,4.30
2023-05-19T20:17:48.352Z,4.60
2023-05-19T20:20:16.994Z,5.50
2023-05-19T20:22:46.518Z,5.82
2023-05-19T20:25:15.091Z,5.25
2023-05-19T20:27:43.449Z,5.47
2023-05-19T20:30:12.345Z,6.80
2023-05-19T20:32:40.933Z,6.55
2023-05-19T20:35:09.578Z,6.13
2023-05-19T20:37:37.769Z,6.28
2023-05-19T20:40:06.729Z,6.20
2023-05-19T20:42:35.252Z,5.35
2023-05-19T20:45:03.699Z,5.50
2023-05-19T20:47:32.091Z,6.18
2023-05-19T20:50:00.539Z,6.63
2023-05-19T20:52:28.776Z,8.18
2023-05-19T20:54:57.090Z,6.38
2023-05-19T20:57:27.156Z,6.75
2023-05-19T20:59:57.050Z,8.07
2023-05-19T21:02:25.428Z,9.05
2023-05-19T21:04:53.952Z,10.95
2023-05-19T21:07:22.252Z,6.82
2023-05-19T21:09:51.856Z,7.15
2023-05-19T21:12:24.254Z,7.20
2023-05-19T21:14:52.704Z,8.98
2023-05-19T21:17:21.780Z,7.57
2023-05-19T21:19:50.684Z,6.75
2023-05-19T21:22:19.230Z,9.40
2023-05-19T21:24:48.052Z,8.68
2023-05-19T21:27:16.417Z,8.13
2023-05-19T21:29:45.010Z,7.53
2023-05-19T21:32:13.251Z,8.80
2023-05-19T21:34:41.623Z,8.63
2023-05-19T21:37:10.095Z,8.25
2023-05-19T21:39:38.417Z,10.45
2023-05-19T21:42:06.826Z,8.90
2023-05-19T21:44:50.913Z,12.43
2023-05-19T21:47:19.336Z,11.82
2023-05-19T21:49:47.670Z,10.60
2023-05-19T21:52:16.361Z,12.73
2023-05-19T21:54:44.748Z,10.55
2023-05-19T21:57:13.035Z,13.38
2023-05-19T21:59:41.352Z,12.90
2023-05-19T22:02:09.770Z,13.27
2023-05-19T22:04:38.937Z,14.38
2023-05-19T22:07:07.439Z,14.45
2023-05-19T22:09:35.994Z,16.45
2023-05-19T22:12:04.703Z,17.08
2023-05-19T22:14:33.237Z,15.77
2023-05-19T22:17:01.505Z,17.73
2023-05-19T22:19:30.208Z,14.30
2023-05-19T22:22:02.408Z,16.70
2023-05-19T22:24:41.197Z,14.52
2023-05-19T22:27:09.857Z,15.20
2023-05-19T22:29:39.373Z,15.50
2023-05-19T22:32:12.406Z,15.02
2023-05-19T22:34:40.880Z,14.48
2023-05-19T22:37:09.905Z,16.33
2023-05-19T22:39:39.864Z,13.90
2023-05-19T22:42:08.436Z,15.10
2023-05-19T22:44:36.902Z,14.02
2023-05-19T22:47:05.943Z,16.38
2023-05-19T22:49:34.351Z,16.83
2023-05-19T22:52:02.696Z,15.48
2023-05-19T22:54:31.780Z,17.83
2023-05-19T22:57:00.196Z,18.20
2023-05-19T22:59:28.480Z,17.88
2023-05-19T23:01:56.953Z,19.38
2023-05-19T23:04:25.405Z,16.85
2023-05-19T23:06:53.856Z,16.77
2023-05-19T23:09:22.276Z,16.60
2023-05-19T23:11:50.915Z,17.67
2023-05-19T23:14:19.491Z,17.90
2023-05-19T23:16:48.739Z,16.55
2023-05-19T23:19:17.430Z,23.10
2023-05-19T23:21:46.259Z,19.10
2023-05-19T23:24:14.488Z,18.58
2023-05-19T23:26:44.347Z,19.80
2023-05-19T23:29:13.527Z,21.17
2023-05-19T23:31:42.575Z,19.38
2023-05-19T23:34:11.288Z,17.98
2023-05-19T23:36:40.312Z,18.85
2023-05-19T23:39:08.735Z,18.13
2023-05-19T23:41:37.713Z,19.45
2023-05-19T23:44:06.133Z,20.10
2023-05-19T23:46:34.546Z,18.63
2023-05-19T23:49:02.899Z,17.23
2023-05-19T23:51:31.664Z,18.45
2023-05-19T23:54:00.677Z,19.98
2023-05-19T23:56:28.860Z,21.05
2023-05-19T23:58:57.096Z,20.10
